ESDF/RNB METAR and TAF weather

Enter ICAO airport designator
Station Type Date Time Source
ESDF METAR 2020/01/19 17:20 UTC NOAA

ESDF 191720Z 28002KT CAVOK 00/M00 Q1034


Station Type Date Time Source
ESDF Decoded METAR 2020/01/19 17:20 UTC NOAA

Ronneby, Sweden (ESDF) 56-16N 015-17E 74M
Jan 19, 2020 - 12:20 PM EST / 2020.01.19 1720 UTC
Wind: from the W (280 degrees) at 2 MPH (2 KT):0
Visibility: greater than 7 mile(s):0
Temperature: 32 F (0 C)
Dew Point: 32 F (0 C)
Relative Humidity: 100%
Pressure (altimeter): 30.53 in. Hg (1034 hPa)
ob: ESDF 191720Z 28002KT CAVOK 00/M00 Q1034
cycle: 17

Station Type Date Time Source
ESDF TAF 2018/05/29 12:27 UTC NOAA

TAF TAF ESDF 291425Z 2912/2924 07008KT CAVOK
RMK MIL

Example: see airport list